Time;durP1;ratioP1;P1;durP2;ratioP2;P2;SDS_P1;SDS_P2;PMS_P1;PMS_P2;Temp;Humidity;BMP_temperature;BMP_pressure;BME280_temperature;BME280_humidity;BME280_pressure;Samples;Min_cycle;Max_cycle;Signal;HPM_P1;HPM_P2
2022/07/11 00:02:24;;;;;;;;;;;;;;;;;;5031564;28;48115;-77
2022/07/11 00:04:51;;;;;;;;;;;;;;;;;;5016212;28;43688;-77
2022/07/11 00:07:17;;;;;;;;;;;;;;;;;;5017507;28;46444;-78
2022/07/11 00:09:43;;;;;;;;;;;;;;;;;;5026659;28;45803;-78
2022/07/11 00:12:11;;;;;;;;;;;;;;;;;;5018205;28;45946;-78
2022/07/11 00:14:39;;;;;;;;;;;;;;;;;;5027493;28;46673;-78
2022/07/11 00:17:05;;;;;;;;;;;;;;;;;;5038246;28;44758;-78
2022/07/11 00:19:32;;;;;;;;;;;;;;;;;;5032679;28;45725;-78
2022/07/11 00:21:58;;;;;;;;;;;;;;;;;;5037532;28;45170;-77
2022/07/11 00:24:25;;;;;;;;;;;;;;;;;;5055626;28;44770;-78
2022/07/11 00:26:51;;;;;;;;;;;;;;;;;;5037714;28;46051;-77
2022/07/11 00:29:17;;;;;;;;;;;;;;;;;;5033517;28;45548;-78
2022/07/11 00:31:44;;;;;;;;;;;;;;;;;;5055813;28;42062;-78
2022/07/11 00:34:10;;;;;;;;;;;;;;;;;;5036289;28;46985;-78
2022/07/11 00:36:37;;;;;;;;;;;;;;;;;;5055078;28;43622;-77
2022/07/11 00:39:03;;;;;;;;;;;;;;;;;;5031572;28;45068;-78
2022/07/11 00:41:29;;;;;;;;;;;;;;;;;;5035444;28;45808;-78
2022/07/11 00:43:56;;;;;;;;;;;;;;;;;;5054120;28;43049;-77
2022/07/11 00:46:22;;;;;;;;;;;;;;;;;;5036572;28;47459;-78
2022/07/11 00:48:48;;;;;;;;;;;;;;;;;;5033719;28;48201;-77
2022/07/11 00:51:15;;;;;;;;;;;;;;;;;;5055071;28;43507;-78
2022/07/11 00:53:41;;;;;;;;;;;;;;;;;;5037982;28;44950;-78
2022/07/11 00:56:07;;;;;;;;;;;;;;;;;;5037073;28;46733;-78
2022/07/11 00:58:34;;;;;;;;;;;;;;;;;;5046708;28;48431;-78
2022/07/11 01:01:00;;;;;;;;;;;;;;;;;;5041693;28;47012;-78
2022/07/11 01:03:26;;;;;;;;;;;;;;;;;;5044702;28;45292;-78
2022/07/11 01:05:52;;;;;;;;;;;;;;;;;;5035853;28;47321;-78
2022/07/11 01:08:19;;;;;;;;;;;;;;;;;;5033310;28;48262;-78
2022/07/11 01:10:45;;;;;;;;;;;;;;;;;;5031422;28;44728;-78
2022/07/11 01:13:11;;;;;;;;;;;;;;;;;;5054514;28;46918;-78
2022/07/11 01:15:38;;;;;;;;;;;;;;;;;;5038262;28;46257;-78
2022/07/11 01:18:04;;;;;;;;;;;;;;;;;;5033668;28;48113;-77
2022/07/11 01:20:31;;;;;;;;;;;;;;;;;;5034798;28;46530;-77
2022/07/11 01:22:57;;;;;;;;;;;;;;;;;;5031595;28;43912;-78
2022/07/11 01:25:30;;;;;;;;;;;;;;;;;;5033364;28;47471;-77
2022/07/11 01:27:56;;;;;;;;;;;;;;;;;;5032795;28;45382;-78
2022/07/11 01:30:23;;;;;;;;;;;;;;;;;;5033439;28;45012;-78
2022/07/11 01:32:49;;;;;;;;;;;;;;;;;;5036894;28;50105;-77
2022/07/11 01:35:15;;;;;;;;;;;;;;;;;;5051179;28;49605;-78
2022/07/11 01:37:41;;;;;;;;;;;;;;;;;;5054254;28;41941;-78
2022/07/11 01:40:08;;;;;;;;;;;;;;;;;;5049589;28;48059;-78
2022/07/11 01:42:34;;;;;;;;;;;;;;;;;;5036562;28;45582;-78
2022/07/11 01:45:00;;;;;;;;;;;;;;;;;;5052873;28;46438;-77
2022/07/11 01:47:26;;;;;;;;;;;;;;;;;;5036318;28;47333;-78
2022/07/11 01:49:53;;;;;;;;;;;;;;;;;;5030568;28;45244;-78
2022/07/11 01:52:19;;;;;;;;;;;;;;;;;;5034277;28;46172;-78
2022/07/11 01:54:45;;;;;;;;;;;;;;;;;;5036831;28;48153;-78
2022/07/11 01:57:11;;;;;;;;;;;;;;;;;;5028790;28;45171;-78
2022/07/11 01:59:38;;;;;;;;;;;;;;;;;;5028112;28;47546;-78
2022/07/11 02:02:04;;;;;;;;;;;;;;;;;;5036294;28;41316;-78
2022/07/11 02:04:30;;;;;;;;;;;;;;;;;;5032926;28;46466;-78
2022/07/11 02:06:57;;;;;;;;;;;;;;;;;;5032832;28;47008;-78
2022/07/11 02:09:23;;;;;;;;;;;;;;;;;;5053319;28;44883;-78
2022/07/11 02:11:49;;;;;;;;;;;;;;;;;;5034575;28;47168;-78
2022/07/11 02:14:15;;;;;;;;;;;;;;;;;;5048882;28;45387;-79
2022/07/11 02:16:42;;;;;;;;;;;;;;;;;;5051030;28;43715;-78
2022/07/11 02:19:10;;;;;;;;;;;;;;;;;;5035601;28;48924;-78
2022/07/11 02:21:36;;;;;;;;;;;;;;;;;;5034278;28;48817;-78
2022/07/11 02:24:02;;;;;;;;;;;;;;;;;;5036367;28;46283;-78
2022/07/11 02:26:29;;;;;;;;;;;;;;;;;;5048224;28;46858;-76
2022/07/11 02:28:55;;;;;;;;;;;;;;;;;;5050858;28;42748;-78
2022/07/11 02:31:21;;;;;;;;;;;;;;;;;;5034425;28;48006;-78
2022/07/11 02:33:48;;;;;;;;;;;;;;;;;;5035083;28;45132;-78
2022/07/11 02:36:14;;;;;;;;;;;;;;;;;;5036241;28;45057;-76
2022/07/11 02:38:42;;;;;;;;;;;;;;;;;;5033306;28;46197;-78
2022/07/11 02:41:08;;;;;;;;;;;;;;;;;;5033299;28;49585;-77
2022/07/11 02:43:34;;;;;;;;;;;;;;;;;;5034943;28;47505;-77
2022/07/11 02:46:00;;;;;;;;;;;;;;;;;;5029804;28;48440;-78
2022/07/11 02:48:27;;;;;;;;;;;;;;;;;;5050414;28;45544;-78
2022/07/11 02:50:53;;;;;;;;;;;;;;;;;;5036258;28;45365;-78
2022/07/11 02:53:19;;;;;;;;;;;;;;;;;;5035654;28;47378;-78
2022/07/11 02:55:48;;;;;;;;;;;;;;;;;;5031977;28;43255;-78
2022/07/11 02:58:14;;;;;;;;;;;;;;;;;;5035943;28;47819;-77
2022/07/11 03:00:41;;;;;;;;;;;;;;;;;;5034911;28;48808;-78
2022/07/11 03:03:07;;;;;;;;;;;;;;;;;;5033956;28;42329;-77
2022/07/11 03:05:33;;;;;;;;;;;;;;;;;;5032261;28;44575;-77
2022/07/11 03:07:59;;;;;;;;;;;;;;;;;;5034316;28;44917;-78
2022/07/11 03:10:26;;;;;;;;;;;;;;;;;;5032997;28;47742;-78
2022/07/11 03:12:52;;;;;;;;;;;;;;;;;;5053723;28;45233;-78
2022/07/11 03:15:18;;;;;;;;;;;;;;;;;;5022949;28;44267;-78
2022/07/11 03:17:44;;;;;;;;;;;;;;;;;;5016699;28;49195;-78
2022/07/11 03:20:11;;;;;;;;;;;;;;;;;;5038121;28;46763;-78
2022/07/11 03:22:37;;;;;;;;;;;;;;;;;;5034106;28;44899;-78
2022/07/11 03:25:06;;;;;;;;;;;;;;;;;;5029926;28;46467;-78
2022/07/11 03:27:33;;;;;;;;;;;;;;;;;;5034398;28;44943;-77
2022/07/11 03:29:59;;;;;;;;;;;;;;;;;;5036832;28;46594;-77
2022/07/11 03:32:25;;;;;;;;;;;;;;;;;;5036388;28;46657;-78
2022/07/11 03:37:39;;;;;;;;;;;;;;;;;;5055689;28;46607;-77
2022/07/11 03:40:06;;;;;;;;;;;;;;;;;;5038633;28;48138;-78
2022/07/11 03:42:32;;;;;;;;;;;;;;;;;;5038803;28;43617;-78
2022/07/11 03:44:58;;;;;;;;;;;;;;;;;;5036801;28;44899;-77
2022/07/11 03:47:25;;;;;;;;;;;;;;;;;;5039555;28;49431;-78
2022/07/11 03:49:51;;;;;;;;;;;;;;;;;;5054341;28;47346;-78
2022/07/11 03:52:17;;;;;;;;;;;;;;;;;;5056167;28;46882;-78
2022/07/11 03:54:44;;;;;;;;;;;;;;;;;;5037280;28;44967;-78
2022/07/11 03:57:10;;;;;;;;;;;;;;;;;;5057673;28;47474;-78
2022/07/11 03:59:36;;;;;;;;;;;;;;;;;;5037805;28;46858;-78
2022/07/11 04:02:02;;;;;;;;;;;;;;;;;;5039552;28;42655;-78
2022/07/11 04:04:29;;;;;;;;;;;;;;;;;;5053596;28;47211;-76
2022/07/11 04:06:55;;;;;;;;;;;;;;;;;;5058563;28;46609;-77
2022/07/11 04:09:22;;;;;;;;;;;;;;;;;;5045440;28;45114;-78
2022/07/11 04:11:48;;;;;;;;;;;;;;;;;;5042656;28;46982;-78
2022/07/11 04:14:15;;;;;;;;;;;;;;;;;;5042677;28;43598;-77
2022/07/11 04:16:41;;;;;;;;;;;;;;;;;;5047327;28;49050;-78
2022/07/11 04:19:08;;;;;;;;;;;;;;;;;;5043118;28;45751;-78
2022/07/11 04:21:34;;;;;;;;;;;;;;;;;;5050468;28;42143;-77
2022/07/11 04:24:01;;;;;;;;;;;;;;;;;;5050476;28;45135;-76
2022/07/11 04:26:27;;;;;;;;;;;;;;;;;;5048291;28;47003;-77
2022/07/11 04:28:53;;;;;;;;;;;;;;;;;;5032579;28;42673;-77
2022/07/11 04:31:20;;;;;;;;;;;;;;;;;;5035516;28;44826;-77
2022/07/11 04:33:46;;;;;;;;;;;;;;;;;;5033812;28;43736;-77
2022/07/11 04:36:12;;;;;;;;;;;;;;;;;;5033810;28;46448;-77
2022/07/11 04:38:38;;;;;;;;;;;;;;;;;;5031882;28;46405;-78
2022/07/11 04:41:05;;;;;;;;;;;;;;;;;;5049424;28;45177;-78
2022/07/11 04:43:31;;;;;;;;;;;;;;;;;;5047950;28;47695;-78
2022/07/11 04:45:57;;;;;;;;;;;;;;;;;;5048988;28;44909;-80
2022/07/11 04:48:25;;;;;;;;;;;;;;;;;;5041069;28;42049;-78
2022/07/11 04:50:51;;;;;;;;;;;;;;;;;;5017690;28;45650;-78
2022/07/11 04:53:18;;;;;;;;;;;;;;;;;;5035416;28;43639;-77
2022/07/11 04:55:44;;;;;;;;;;;;;;;;;;5032984;28;46505;-77
2022/07/11 04:58:11;;;;;;;;;;;;;;;;;;5031041;28;45057;-77
2022/07/11 05:00:37;;;;;;;;;;;;;;;;;;5050103;28;43223;-77
2022/07/11 05:03:07;;;;;;;;;;;;;;;;;;5048108;28;46367;-77
2022/07/11 05:05:34;;;;;;;;;;;;;;;;;;5032874;28;45636;-77
2022/07/11 05:08:00;;;;;;;;;;;;;;;;;;5038200;28;43645;-77
2022/07/11 05:10:26;;;;;;;;;;;;;;;;;;5031992;28;46637;-77
2022/07/11 05:12:53;;;;;;;;;;;;;;;;;;5046124;28;47942;-78
2022/07/11 05:15:19;;;;;;;;;;;;;;;;;;5044849;28;47598;-76
2022/07/11 05:17:45;;;;;;;;;;;;;;;;;;5051599;28;50145;-77
2022/07/11 05:20:12;;;;;;;;;;;;;;;;;;5051592;28;40829;-77
2022/07/11 05:22:38;;;;;;;;;;;;;;;;;;5032380;28;46353;-77
2022/07/11 05:25:04;;;;;;;;;;;;;;;;;;5031195;28;46984;-77
2022/07/11 05:27:31;;;;;;;;;;;;;;;;;;5031406;28;43790;-79
2022/07/11 05:29:57;;;;;;;;;;;;;;;;;;5037998;28;44767;-80
2022/07/11 05:32:23;;;;;;;;;;;;;;;;;;5049529;28;49927;-77
2022/07/11 05:34:49;;;;;;;;;;;;;;;;;;5050981;28;41263;-77
2022/07/11 05:37:16;;;;;;;;;;;;;;;;;;5032670;28;46647;-77
2022/07/11 05:39:42;;;;;;;;;;;;;;;;;;5032116;28;44655;-77
2022/07/11 05:42:08;;;;;;;;;;;;;;;;;;5029087;28;44639;-78
2022/07/11 05:44:34;;;;;;;;;;;;;;;;;;5049337;28;46413;-77
2022/07/11 05:47:01;;;;;;;;;;;;;;;;;;5030483;28;42046;-77
2022/07/11 05:49:27;;;;;;;;;;;;;;;;;;5048783;28;49058;-77
2022/07/11 05:51:54;;;;;;;;;;;;;;;;;;5026826;28;47429;-77
2022/07/11 05:54:20;;;;;;;;;;;;;;;;;;5025218;28;41949;-77
2022/07/11 05:56:47;;;;;;;;;;;;;;;;;;5028846;28;46478;-77
2022/07/11 05:59:13;;;;;;;;;;;;;;;;;;5028986;28;43718;-77
2022/07/11 06:01:40;;;;;;;;;;;;;;;;;;5041025;28;47957;-77
2022/07/11 06:04:06;;;;;;;;;;;;;;;;;;5032152;28;50024;-77
2022/07/11 06:06:32;;;;;;;;;;;;;;;;;;5031602;28;42191;-77
2022/07/11 06:08:59;;;;;;;;;;;;;;;;;;5049765;28;49432;-77
2022/07/11 06:11:25;;;;;;;;;;;;;;;;;;5030139;28;46940;-79
2022/07/11 06:13:51;;;;;;;;;;;;;;;;;;5053267;28;45393;-79
2022/07/11 06:16:23;;;;;;;;;;;;;;;;;;5038655;28;44857;-79
2022/07/11 06:18:50;;;;;;;;;;;;;;;;;;5055350;28;47407;-79
2022/07/11 06:21:17;;;;;;;;;;;;;;;;;;5034774;28;48767;-79
2022/07/11 06:23:43;;;;;;;;;;;;;;;;;;5039338;28;44810;-79
2022/07/11 06:26:15;;;;;;;;;;;;;;;;;;5038044;28;45498;-78
2022/07/11 06:28:41;;;;;;;;;;;;;;;;;;5036948;28;46590;-78
2022/07/11 06:31:07;;;;;;;;;;;;;;;;;;5034426;28;47169;-79
2022/07/11 06:33:34;;;;;;;;;;;;;;;;;;5037791;28;44191;-79
2022/07/11 06:36:01;;;;;;;;;;;;;;;;;;5038654;28;46372;-79
2022/07/11 06:38:28;;;;;;;;;;;;;;;;;;5054012;28;48006;-79
2022/07/11 06:40:54;;;;;;;;;;;;;;;;;;5051974;28;42153;-79
2022/07/11 06:43:21;;;;;;;;;;;;;;;;;;5029234;28;47224;-80
2022/07/11 06:45:47;;;;;;;;;;;;;;;;;;5041699;28;43981;-80
2022/07/11 06:48:14;;;;;;;;;;;;;;;;;;5027918;28;46996;-80
2022/07/11 06:50:40;;;;;;;;;;;;;;;;;;5022111;28;47521;-80
2022/07/11 06:53:06;;;;;;;;;;;;;;;;;;5048494;28;46963;-82
2022/07/11 06:55:32;;;;;;;;;;;;;;;;;;5043498;28;45857;-82
2022/07/11 06:57:59;;;;;;;;;;;;;;;;;;5019086;28;48066;-80
2022/07/11 07:00:45;;;;;;;;;;;;;;;;;;5046405;28;19929;-81
2022/07/11 07:03:11;;;;;;;;;;;;;;;;;;5026683;28;49419;-79
2022/07/11 07:05:45;;;;;;;;;;;;;;;;;;5034419;28;46504;-80
2022/07/11 07:08:15;;;;;;;;;;;;;;;;;;5026374;28;45034;-79
2022/07/11 07:10:41;;;;;;;;;;;;;;;;;;5048321;28;48372;-82
2022/07/11 07:13:08;;;;;;;;;;;;;;;;;;5036717;28;44931;-83
2022/07/11 07:15:34;;;;;;;;;;;;;;;;;;5049773;28;47399;-82
2022/07/11 07:18:00;;;;;;;;;;;;;;;;;;5029037;28;48177;-80
2022/07/11 07:20:29;;;;;;;;;;;;;;;;;;5035756;28;43941;-81
2022/07/11 07:22:55;;;;;;;;;;;;;;;;;;5027143;28;47863;-81
2022/07/11 07:25:21;;;;;;;;;;;;;;;;;;5033961;28;43732;-80
2022/07/11 07:27:47;;;;;;;;;;;;;;;;;;5026312;28;47350;-82
2022/07/11 07:30:14;;;;;;;;;;;;;;;;;;5051591;28;46981;-81
2022/07/11 07:32:40;;;;;;;;;;;;;;;;;;5052066;28;44083;-80
2022/07/11 07:35:06;;;;;;;;;;;;;;;;;;5049950;28;44965;-84
2022/07/11 07:37:32;;;;;;;;;;;;;;;;;;5031418;28;44909;-84
2022/07/11 07:39:59;;;;;;;;;;;;;;;;;;5048788;28;42954;-83
2022/07/11 07:42:25;;;;;;;;;;;;;;;;;;5051542;28;44421;-79
2022/07/11 07:44:51;;;;;;;;;;;;;;;;;;5049341;28;47120;-79
2022/07/11 07:47:17;;;;;;;;;;;;;;;;;;5025179;28;47278;-80
2022/07/11 07:49:44;;;;;;;;;;;;;;;;;;5047400;28;47697;-80
2022/07/11 07:52:11;;;;;;;;;;;;;;;;;;5050073;28;43829;-81
2022/07/11 07:54:37;;;;;;;;;;;;;;;;;;5031351;28;44553;-80
2022/07/11 07:57:04;;;;;;;;;;;;;;;;;;5034004;28;45835;-84
2022/07/11 07:59:30;;;;;;;;;;;;;;;;;;5051630;28;42791;-79
2022/07/11 08:01:56;;;;;;;;;;;;;;;;;;5049885;28;47718;-80
2022/07/11 08:04:23;;;;;;;;;;;;;;;;;;5032563;28;44521;-80
2022/07/11 08:06:49;;;;;;;;;;;;;;;;;;5033884;28;43289;-79
2022/07/11 08:09:16;;;;;;;;;;;;;;;;;;5031301;28;45928;-79
2022/07/11 08:11:47;;;;;;;;;;;;;;;;;;5023129;28;42115;-80
2022/07/11 08:14:13;;;;;;;;;;;;;;;;;;5013403;28;46479;-80
2022/07/11 08:16:40;;;;;;;;;;;;;;;;;;5050070;28;48273;-79
2022/07/11 08:19:07;;;;;;;;;;;;;;;;;;5035755;28;44074;-79
2022/07/11 08:21:33;;;;;;;;;;;;;;;;;;5023577;28;47640;-81
2022/07/11 08:23:59;;;;;;;;;;;;;;;;;;5030916;28;45402;-82
2022/07/11 08:26:26;;;;;;;;;;;;;;;;;;5029322;28;43980;-82
2022/07/11 08:28:58;;;;;;;;;;;;;;;;;;5034316;28;45085;-79
2022/07/11 08:31:24;;;;;;;;;;;;;;;;;;5015846;28;44199;-79
2022/07/11 08:33:52;;;;;;;;;;;;;;;;;;5048446;28;45123;-77
2022/07/11 08:36:18;;;;;;;;;;;;;;;;;;5033678;28;47865;-79
2022/07/11 08:38:46;;;;;;;;;;;;;;;;;;5025704;28;41686;-79
2022/07/11 08:41:12;;;;;;;;;;;;;;;;;;5033044;28;47470;-78
2022/07/11 08:43:39;;;;;;;;;;;;;;;;;;5046573;28;48076;-81
2022/07/11 08:46:05;;;;;;;;;;;;;;;;;;5030041;28;45252;-78
2022/07/11 08:48:31;;;;;;;;;;;;;;;;;;5046229;28;49618;-77
2022/07/11 08:50:58;;;;;;;;;;;;;;;;;;5044083;28;35613;-79
2022/07/11 08:53:24;;;;;;;;;;;;;;;;;;5030353;28;46479;-78
2022/07/11 08:55:52;;;;;;;;;;;;;;;;;;5031372;28;45579;-80
2022/07/11 08:58:18;;;;;;;;;;;;;;;;;;5048413;28;43293;-79
2022/07/11 09:00:44;;;;;;;;;;;;;;;;;;5049067;28;45323;-80
2022/07/11 09:03:10;;;;;;;;;;;;;;;;;;5031232;28;47313;-79
2022/07/11 09:05:37;;;;;;;;;;;;;;;;;;5046647;28;43740;-80
2022/07/11 09:08:03;;;;;;;;;;;;;;;;;;5033543;28;46365;-82
2022/07/11 09:10:29;;;;;;;;;;;;;;;;;;5048512;28;48009;-83
2022/07/11 09:12:56;;;;;;;;;;;;;;;;;;5036101;28;46513;-79
2022/07/11 09:15:22;;;;;;;;;;;;;;;;;;5039512;28;46890;-79
2022/07/11 09:17:48;;;;;;;;;;;;;;;;;;5038732;28;43917;-79
2022/07/11 09:20:14;;;;;;;;;;;;;;;;;;5032257;28;47801;-82
2022/07/11 09:25:32;;;;;;;;;;;;;;;;;;5041547;28;42514;-81
2022/07/11 09:28:01;;;;;;;;;;;;;;;;;;5030845;28;47039;-81
2022/07/11 09:30:27;;;;;;;;;;;;;;;;;;5030743;28;48145;-81
2022/07/11 09:32:57;;;;;;;;;;;;;;;;;;5029032;28;43746;-80
2022/07/11 09:35:23;;;;;;;;;;;;;;;;;;5030312;28;48035;-78
2022/07/11 09:37:49;;;;;;;;;;;;;;;;;;5029155;28;40516;-78
2022/07/11 09:40:17;;;;;;;;;;;;;;;;;;5031355;28;47741;-77
2022/07/11 09:42:44;;;;;;;;;;;;;;;;;;5036042;28;47388;-77
2022/07/11 09:45:11;;;;;;;;;;;;;;;;;;5046581;28;43139;-80
2022/07/11 09:47:37;;;;;;;;;;;;;;;;;;5032406;28;47947;-81
2022/07/11 09:50:04;;;;;;;;;;;;;;;;;;5028261;28;48144;-80
2022/07/11 09:52:30;;;;;;;;;;;;;;;;;;5034986;28;43637;-77
2022/07/11 09:55:00;;;;;;;;;;;;;;;;;;5043498;28;45657;-77
2022/07/11 09:57:26;;;;;;;;;;;;;;;;;;5029839;28;43546;-77
2022/07/11 09:59:53;;;;;;;;;;;;;;;;;;5027513;28;47678;-77
2022/07/11 10:02:19;;;;;;;;;;;;;;;;;;5029538;28;48139;-77
2022/07/11 10:04:46;;;;;;;;;;;;;;;;;;5029727;28;41136;-78
2022/07/11 10:07:12;;;;;;;;;;;;;;;;;;5043869;28;46328;-78
2022/07/11 10:09:38;;;;;;;;;;;;;;;;;;5034298;28;48412;-76
2022/07/11 10:12:04;;;;;;;;;;;;;;;;;;5037457;28;45203;-77
2022/07/11 10:14:31;;;;;;;;;;;;;;;;;;5044971;28;46534;-77
2022/07/11 10:16:57;;;;;;;;;;;;;;;;;;5048871;28;46873;-77
2022/07/11 10:19:23;;;;;;;;;;;;;;;;;;5046087;28;45046;-78
2022/07/11 10:21:49;;;;;;;;;;;;;;;;;;5018655;28;47012;-78
2022/07/11 10:24:18;;;;;;;;;;;;;;;;;;5046609;28;44704;-77
2022/07/11 10:26:44;;;;;;;;;;;;;;;;;;5028519;28;47513;-78
2022/07/11 10:29:11;;;;;;;;;;;;;;;;;;5044666;28;47185;-78
2022/07/11 10:31:37;;;;;;;;;;;;;;;;;;5017457;28;42771;-78
2022/07/11 10:34:24;;;;;;;;;;;;;;;;;;5044482;28;19932;-77
2022/07/11 10:36:50;;;;;;;;;;;;;;;;;;5047576;28;48082;-77
2022/07/11 10:39:29;;;;;;;;;;;;;;;;;;5033297;28;45200;-77
2022/07/11 10:41:55;;;;;;;;;;;;;;;;;;5019171;28;48456;-77
2022/07/11 10:44:21;;;;;;;;;;;;;;;;;;5047313;28;45175;-77
2022/07/11 10:46:48;;;;;;;;;;;;;;;;;;5036789;28;44497;-77
2022/07/11 10:49:14;;;;;;;;;;;;;;;;;;5023806;28;46072;-77
2022/07/11 10:51:47;;;;;;;;;;;;;;;;;;5041826;28;43789;-77
2022/07/11 10:54:34;;;;;;;;;;;;;;;;;;5046403;28;19935;-77
2022/07/11 10:57:00;;;;;;;;;;;;;;;;;;5048565;28;45674;-77
2022/07/11 10:59:26;;;;;;;;;;;;;;;;;;5031838;28;45008;-77
2022/07/11 11:01:52;;;;;;;;;;;;;;;;;;5031426;28;47317;-78
2022/07/11 11:04:19;;;;;;;;;;;;;;;;;;5043628;28;44171;-78
2022/07/11 11:06:45;;;;;;;;;;;;;;;;;;5048446;28;46060;-78
2022/07/11 11:09:11;;;;;;;;;;;;;;;;;;5047881;28;45949;-78
2022/07/11 11:11:38;;;;;;;;;;;;;;;;;;5045247;28;41880;-76
2022/07/11 11:14:04;;;;;;;;;;;;;;;;;;5042619;28;45968;-77
2022/07/11 11:16:31;;;;;;;;;;;;;;;;;;5022046;28;45526;-77
2022/07/11 11:18:57;;;;;;;;;;;;;;;;;;5032983;28;43778;-77
2022/07/11 11:21:24;;;;;;;;;;;;;;;;;;5030611;28;46630;-76
2022/07/11 11:23:52;;;;;;;;;;;;;;;;;;5031519;28;44071;-76
2022/07/11 11:26:19;;;;;;;;;;;;;;;;;;5048522;28;46068;-76
2022/07/11 11:28:45;;;;;;;;;;;;;;;;;;5041966;28;46652;-77
2022/07/11 11:31:11;;;;;;;;;;;;;;;;;;5038334;28;42143;-77
2022/07/11 11:33:37;;;;;;;;;;;;;;;;;;5038599;28;46448;-77
2022/07/11 11:36:04;;;;;;;;;;;;;;;;;;5021808;28;46444;-77
2022/07/11 11:38:30;;;;;;;;;;;;;;;;;;5035757;28;45780;-76
2022/07/11 11:40:56;;;;;;;;;;;;;;;;;;5046118;28;47554;-78
2022/07/11 11:43:27;;;;;;;;;;;;;;;;;;5045078;28;47231;-77
2022/07/11 11:45:54;;;;;;;;;;;;;;;;;;5045405;28;44385;-77
2022/07/11 11:48:20;;;;;;;;;;;;;;;;;;5033843;28;47306;-77
2022/07/11 11:50:46;;;;;;;;;;;;;;;;;;5047637;28;43971;-77
2022/07/11 11:53:14;;;;;;;;;;;;;;;;;;5046164;28;47715;-77
2022/07/11 11:55:40;;;;;;;;;;;;;;;;;;5040653;28;46930;-77
2022/07/11 11:58:06;;;;;;;;;;;;;;;;;;5045067;28;43931;-78
2022/07/11 12:00:33;;;;;;;;;;;;;;;;;;5027753;28;48519;-78
2022/07/11 12:03:19;;;;;;;;;;;;;;;;;;5045710;28;19942;-78
2022/07/11 12:05:45;;;;;;;;;;;;;;;;;;5030661;28;45045;-78
2022/07/11 12:08:12;;;;;;;;;;;;;;;;;;5038762;28;45884;-79
2022/07/11 12:10:38;;;;;;;;;;;;;;;;;;5041099;28;44733;-78
2022/07/11 12:13:07;;;;;;;;;;;;;;;;;;5026115;28;46556;-78
2022/07/11 12:16:38;;;;;;;;;;;;;;;;;;5022446;28;46663;-78
2022/07/11 12:18:20;;;;;;;;;;;;;;;;;;5047792;28;44923;-78
2022/07/11 12:20:46;;;;;;;;;;;;;;;;;;5026344;28;45348;-79
2022/07/11 12:23:13;;;;;;;;;;;;;;;;;;5029369;28;45521;-79
2022/07/11 12:25:46;;;;;;;;;;;;;;;;;;5029372;28;42852;-78
2022/07/11 12:28:12;;;;;;;;;;;;;;;;;;5046023;28;46669;-78
2022/07/11 12:30:38;;;;;;;;;;;;;;;;;;5053095;28;43788;-80
2022/07/11 12:33:04;;;;;;;;;;;;;;;;;;5026585;28;44709;-79
2022/07/11 12:35:31;;;;;;;;;;;;;;;;;;5047685;28;46995;-79
2022/07/11 12:37:57;;;;;;;;;;;;;;;;;;5028599;28;44282;-79
2022/07/11 12:40:23;;;;;;;;;;;;;;;;;;5030267;28;45201;-79
2022/07/11 12:42:50;;;;;;;;;;;;;;;;;;5052322;28;48069;-79
2022/07/11 12:45:17;;;;;;;;;;;;;;;;;;5027942;28;45447;-79
2022/07/11 12:47:43;;;;;;;;;;;;;;;;;;5030829;28;46330;-79
2022/07/11 12:50:09;;;;;;;;;;;;;;;;;;5050809;28;48125;-79
2022/07/11 12:52:36;;;;;;;;;;;;;;;;;;5043053;28;49583;-79
2022/07/11 12:55:05;;;;;;;;;;;;;;;;;;5024302;28;48870;-81
2022/07/11 12:57:31;;;;;;;;;;;;;;;;;;5047418;28;44902;-81
2022/07/11 12:59:57;;;;;;;;;;;;;;;;;;5028823;28;47604;-80
2022/07/11 13:02:26;;;;;;;;;;;;;;;;;;5049093;28;47974;-80
2022/07/11 13:04:53;;;;;;;;;;;;;;;;;;5041797;28;44807;-80
2022/07/11 13:10:18;;;;;;;;;;;;;;;;;;4993617;28;46933;-81
2022/07/11 13:12:44;;;;;;;;;;;;;;;;;;5027539;28;46318;-81
2022/07/11 13:15:11;;;;;;;;;;;;;;;;;;5049363;28;46765;-80
2022/07/11 13:17:40;;;;;;;;;;;;;;;;;;5030501;28;42931;-80
2022/07/11 13:20:07;;;;;;;;;;;;;;;;;;5049631;28;44700;-80
2022/07/11 13:22:34;;;;;;;;;;;;;;;;;;5041933;28;47039;-81
2022/07/11 13:25:00;;;;;;;;;;;;;;;;;;5046719;28;42199;-81
2022/07/11 13:27:26;;;;;;;;;;;;;;;;;;5018343;28;44555;-80
2022/07/11 13:29:53;;;;;;;;;;;;;;;;;;5029644;28;45182;-81
2022/07/11 13:32:19;;;;;;;;;;;;;;;;;;5047279;28;43938;-81
2022/07/11 13:34:45;;;;;;;;;;;;;;;;;;5031025;28;48353;-80
2022/07/11 13:37:11;;;;;;;;;;;;;;;;;;5033057;28;42065;-82
2022/07/11 13:39:38;;;;;;;;;;;;;;;;;;5029612;28;44761;-80
2022/07/11 13:42:04;;;;;;;;;;;;;;;;;;5031680;28;44872;-81
2022/07/11 13:44:31;;;;;;;;;;;;;;;;;;5016637;28;43611;-82
2022/07/11 13:46:57;;;;;;;;;;;;;;;;;;5045037;28;46261;-82
2022/07/11 13:49:24;;;;;;;;;;;;;;;;;;5047986;28;46223;-82
2022/07/11 13:51:50;;;;;;;;;;;;;;;;;;5049417;28;43738;-82
2022/07/11 13:54:16;;;;;;;;;;;;;;;;;;5031076;28;46151;-82
2022/07/11 13:56:43;;;;;;;;;;;;;;;;;;5024414;28;44648;-81
2022/07/11 13:59:09;;;;;;;;;;;;;;;;;;5039046;28;46449;-82
2022/07/11 14:01:35;;;;;;;;;;;;;;;;;;5020634;28;47485;-80
2022/07/11 14:04:02;;;;;;;;;;;;;;;;;;5024426;28;41710;-80
2022/07/11 14:06:28;;;;;;;;;;;;;;;;;;5021695;28;46240;-81
2022/07/11 14:09:14;;;;;;;;;;;;;;;;;;5018838;28;20434;-82
2022/07/11 14:11:41;;;;;;;;;;;;;;;;;;5044843;28;43018;-81
2022/07/11 14:14:07;;;;;;;;;;;;;;;;;;5046932;28;47745;-82
2022/07/11 14:16:33;;;;;;;;;;;;;;;;;;5039253;28;45838;-82
2022/07/11 14:19:04;;;;;;;;;;;;;;;;;;5041751;28;44018;-81
2022/07/11 14:21:30;;;;;;;;;;;;;;;;;;5057285;28;49584;-81
2022/07/11 14:23:56;;;;;;;;;;;;;;;;;;5034440;28;44019;-81
2022/07/11 14:26:23;;;;;;;;;;;;;;;;;;5037843;28;46790;-81
2022/07/11 14:28:49;;;;;;;;;;;;;;;;;;5043592;28;45453;-81
2022/07/11 14:31:15;;;;;;;;;;;;;;;;;;5040693;28;41667;-82
2022/07/11 14:33:42;;;;;;;;;;;;;;;;;;5028610;28;46467;-81
2022/07/11 14:36:08;;;;;;;;;;;;;;;;;;5049352;28;46699;-81
2022/07/11 14:38:34;;;;;;;;;;;;;;;;;;5046171;28;44881;-82
2022/07/11 14:41:01;;;;;;;;;;;;;;;;;;5028529;28;46867;-82
2022/07/11 14:43:31;;;;;;;;;;;;;;;;;;5030185;28;42897;-82
2022/07/11 14:45:57;;;;;;;;;;;;;;;;;;5046950;28;45362;-81
2022/07/11 14:48:23;;;;;;;;;;;;;;;;;;5029309;28;44900;-82
2022/07/11 14:50:50;;;;;;;;;;;;;;;;;;5030586;28;43120;-82
2022/07/11 14:53:16;;;;;;;;;;;;;;;;;;5046418;28;46806;-81
2022/07/11 14:55:43;;;;;;;;;;;;;;;;;;5028747;28;49661;-81
2022/07/11 14:58:09;;;;;;;;;;;;;;;;;;5042945;28;43910;-82
2022/07/11 15:00:35;;;;;;;;;;;;;;;;;;5029279;28;46803;-82
2022/07/11 15:05:51;;;;;;;;;;;;;;;;;;5046852;28;46552;-82
2022/07/11 15:13:49;;;;;;;;;;;;;;;;;;5019898;28;49456;-81
2022/07/11 15:16:15;;;;;;;;;;;;;;;;;;5043020;28;46814;-81
2022/07/11 15:18:41;;;;;;;;;;;;;;;;;;5029038;28;43409;-81
2022/07/11 15:21:08;;;;;;;;;;;;;;;;;;5048408;28;44356;-81
2022/07/11 15:23:34;;;;;;;;;;;;;;;;;;5048306;28;44792;-81
2022/07/11 15:26:01;;;;;;;;;;;;;;;;;;5029667;28;48074;-81
2022/07/11 15:28:27;;;;;;;;;;;;;;;;;;5042711;28;47245;-80
2022/07/11 15:30:59;;;;;;;;;;;;;;;;;;5050440;28;45009;-80
2022/07/11 15:33:25;;;;;;;;;;;;;;;;;;5048711;28;44463;-81
2022/07/11 15:35:52;;;;;;;;;;;;;;;;;;5027543;28;46325;-82
2022/07/11 15:38:19;;;;;;;;;;;;;;;;;;5028952;28;44128;-81
2022/07/11 15:40:46;;;;;;;;;;;;;;;;;;5049402;28;47563;-80
2022/07/11 15:43:12;;;;;;;;;;;;;;;;;;5043420;28;49417;-81
2022/07/11 15:45:39;;;;;;;;;;;;;;;;;;5030994;28;47722;-80
2022/07/11 15:48:05;;;;;;;;;;;;;;;;;;5045784;28;46228;-80
2022/07/11 15:50:31;;;;;;;;;;;;;;;;;;5026423;28;43764;-79
2022/07/11 15:53:00;;;;;;;;;;;;;;;;;;5042447;28;45303;-80
2022/07/11 15:55:26;;;;;;;;;;;;;;;;;;5029599;28;46985;-80
2022/07/11 15:57:52;;;;;;;;;;;;;;;;;;5040866;28;43722;-79
2022/07/11 16:00:20;;;;;;;;;;;;;;;;;;5027338;28;46258;-80
2022/07/11 16:02:47;;;;;;;;;;;;;;;;;;5018158;28;46988;-80
2022/07/11 16:05:13;;;;;;;;;;;;;;;;;;5031935;28;41961;-80
2022/07/11 16:07:39;;;;;;;;;;;;;;;;;;5028674;28;47848;-79
2022/07/11 16:10:06;;;;;;;;;;;;;;;;;;5045090;28;41944;-80
2022/07/11 16:12:32;;;;;;;;;;;;;;;;;;5034708;28;47803;-80
2022/07/11 16:14:58;;;;;;;;;;;;;;;;;;5028748;28;48044;-80
2022/07/11 16:17:25;;;;;;;;;;;;;;;;;;5047745;28;44864;-80
2022/07/11 16:19:51;;;;;;;;;;;;;;;;;;5045380;28;47002;-80
2022/07/11 16:22:17;;;;;;;;;;;;;;;;;;5047709;28;47251;-80
2022/07/11 16:24:44;;;;;;;;;;;;;;;;;;5045038;28;42145;-79
2022/07/11 16:27:10;;;;;;;;;;;;;;;;;;5049788;28;46369;-79
2022/07/11 16:29:36;;;;;;;;;;;;;;;;;;5044730;28;45039;-79
2022/07/11 16:32:03;;;;;;;;;;;;;;;;;;5031877;28;47859;-80
2022/07/11 16:34:29;;;;;;;;;;;;;;;;;;5048618;28;48370;-79
2022/07/11 16:36:55;;;;;;;;;;;;;;;;;;5047220;28;45266;-79
2022/07/11 16:44:52;;;;;;;;;;;;;;;;;;5048438;28;44696;-80
2022/07/11 16:47:18;;;;;;;;;;;;;;;;;;5031418;28;46390;-79
2022/07/11 16:49:44;;;;;;;;;;;;;;;;;;5040618;28;45334;-79
2022/07/11 16:52:11;;;;;;;;;;;;;;;;;;5033267;28;44787;-79
2022/07/11 16:54:37;;;;;;;;;;;;;;;;;;5046378;28;48154;-78
2022/07/11 16:57:03;;;;;;;;;;;;;;;;;;5038277;28;45005;-79
2022/07/11 16:59:30;;;;;;;;;;;;;;;;;;5027828;28;46447;-79
2022/07/11 17:01:56;;;;;;;;;;;;;;;;;;5047738;28;48055;-79
2022/07/11 17:04:22;;;;;;;;;;;;;;;;;;5056519;28;43722;-79
2022/07/11 17:06:49;;;;;;;;;;;;;;;;;;5040890;28;47691;-79